createdAt,value
2022-10-11T00:02:02.693Z,102428.53
2022-10-11T00:04:32.134Z,102424.95
2022-10-11T00:07:01.371Z,102425.78
2022-10-11T00:09:31.538Z,102430.52
2022-10-11T00:12:01.056Z,102432.16
2022-10-11T00:14:30.703Z,102429.25
2022-10-11T00:17:00.190Z,102427.88
2022-10-11T00:19:29.805Z,102424.38
2022-10-11T00:21:59.084Z,102427.74
2022-10-11T00:24:28.346Z,102439.09
2022-10-11T00:26:57.673Z,102437.27
2022-10-11T00:29:27.047Z,102440.36
2022-10-11T00:31:56.371Z,102438.68
2022-10-11T00:34:25.897Z,102444.16
2022-10-11T00:36:55.201Z,102454.04
2022-10-11T00:39:24.474Z,102449.62
2022-10-11T00:41:53.855Z,102449.75
2022-10-11T00:44:25.870Z,102456.82
2022-10-11T00:47:00.620Z,102459.19
2022-10-11T00:49:42.197Z,102451.09
2022-10-11T00:52:31.746Z,102459.08
2022-10-11T00:55:04.213Z,102459.22
2022-10-11T00:57:36.525Z,102459.38
2022-10-11T01:00:09.195Z,102469.63
2022-10-11T01:02:39.125Z,102465.82
2022-10-11T01:05:28.588Z,102464.86
2022-10-11T01:07:42.416Z,102469.77
2022-10-11T01:10:11.735Z,102467.94
2022-10-11T01:12:47.206Z,102468.88
2022-10-11T01:15:37.777Z,102469.90
2022-10-11T01:18:22.301Z,102467.29
2022-10-11T01:21:11.854Z,102462.91
2022-10-11T01:24:17.930Z,102468.62
2022-10-11T01:27:19.453Z,102468.62
2022-10-11T01:30:04.346Z,102463.44
2022-10-11T01:32:36.739Z,102464.37
2022-10-11T01:35:23.644Z,102468.89
2022-10-11T01:37:58.774Z,102472.64
2022-10-11T01:40:36.778Z,102471.36
2022-10-11T01:43:06.356Z,102471.89
2022-10-11T01:45:36.147Z,102470.89
2022-10-11T01:48:08.194Z,102475.27
2022-10-11T01:50:58.646Z,102478.76
2022-10-11T01:53:36.877Z,102475.06
2022-10-11T01:56:23.592Z,102467.69
2022-10-11T01:59:02.464Z,102474.69
2022-10-11T02:02:08.977Z,102476.03
2022-10-11T02:04:53.549Z,102480.03
2022-10-11T02:07:45.890Z,102483.08
2022-10-11T02:10:27.687Z,102477.94
2022-10-11T02:13:01.973Z,102478.20
2022-10-11T02:15:33.031Z,102476.55
2022-10-11T02:18:04.283Z,102478.77
2022-10-11T02:20:35.198Z,102479.28
2022-10-11T02:23:22.477Z,102480.05
2022-10-11T02:25:52.270Z,102478.71
2022-10-11T02:28:25.353Z,102481.24
2022-10-11T02:30:55.380Z,102481.24
2022-10-11T02:33:27.835Z,102482.98
2022-10-11T02:36:00.424Z,102486.48
2022-10-11T02:38:30.581Z,102481.59
2022-10-11T02:41:19.502Z,102487.55
2022-10-11T02:43:55.040Z,102491.25
2022-10-11T02:46:25.049Z,102490.43
2022-10-11T02:48:54.620Z,102488.27
2022-10-11T02:51:23.859Z,102478.06
2022-10-11T02:53:53.057Z,102494.30
2022-10-11T02:56:22.579Z,102489.98
2022-10-11T02:58:51.790Z,102480.31
2022-10-11T03:01:21.236Z,102487.31
2022-10-11T03:03:50.804Z,102488.19
2022-10-11T03:06:20.060Z,102484.58
2022-10-11T03:08:49.329Z,102494.30
2022-10-11T03:11:18.566Z,102509.31
2022-10-11T03:13:47.775Z,102501.19
2022-10-11T03:16:17.030Z,102505.70
2022-10-11T03:18:46.250Z,102507.55
2022-10-11T03:21:15.607Z,102503.91
2022-10-11T03:23:44.863Z,102500.72
2022-10-11T03:26:14.486Z,102508.00
2022-10-11T03:28:43.837Z,102505.69
2022-10-11T03:31:13.804Z,102509.50
2022-10-11T03:33:43.193Z,102506.52
2022-10-11T03:36:12.615Z,102514.22
2022-10-11T03:38:42.171Z,102513.59
2022-10-11T03:41:11.663Z,102511.59
2022-10-11T03:43:40.988Z,102516.43
2022-10-11T03:46:10.227Z,102516.31
2022-10-11T03:48:39.503Z,102518.84
2022-10-11T03:51:09.073Z,102513.09
2022-10-11T03:53:38.793Z,102515.80
2022-10-11T03:56:09.356Z,102521.45
2022-10-11T03:58:39.066Z,102525.92
2022-10-11T04:01:08.924Z,102512.41
2022-10-11T04:03:38.262Z,102519.77
2022-10-11T04:06:08.906Z,102520.47
2022-10-11T04:08:38.367Z,102524.64
2022-10-11T04:11:07.609Z,102524.52
2022-10-11T04:13:37.690Z,102524.25
2022-10-11T04:16:08.214Z,102528.77
2022-10-11T04:18:37.754Z,102537.45
2022-10-11T04:21:07.572Z,102539.81
2022-10-11T04:23:36.789Z,102535.49
2022-10-11T04:26:08.892Z,102536.27
2022-10-11T04:28:38.413Z,102538.90
2022-10-11T04:31:08.035Z,102539.65
2022-10-11T04:33:37.350Z,102539.81
2022-10-11T04:36:08.321Z,102555.05
2022-10-11T04:38:37.884Z,102551.44
2022-10-11T04:41:09.184Z,102551.75
2022-10-11T04:43:38.581Z,102553.28
2022-10-11T04:46:08.939Z,102551.28
2022-10-11T04:48:38.473Z,102560.78
2022-10-11T04:51:07.857Z,102564.78
2022-10-11T04:53:37.319Z,102551.70
2022-10-11T04:56:11.339Z,102554.33
2022-10-11T04:58:41.530Z,102559.16
2022-10-11T05:01:11.812Z,102555.47
2022-10-11T05:03:41.214Z,102554.65
2022-10-11T05:06:11.381Z,102552.30
2022-10-11T05:08:41.443Z,102550.38
2022-10-11T05:11:15.661Z,102560.73
2022-10-11T05:13:44.842Z,102558.66
2022-10-11T05:16:15.468Z,102557.44
2022-10-11T05:18:45.047Z,102560.50
2022-10-11T05:21:23.390Z,102558.63
2022-10-11T05:23:53.884Z,102564.20
2022-10-11T05:26:24.038Z,102560.35
2022-10-11T05:28:53.508Z,102557.88
2022-10-11T05:31:23.634Z,102561.92
2022-10-11T05:33:52.929Z,102573.30
2022-10-11T05:36:22.552Z,102576.67
2022-10-11T05:38:51.915Z,102576.52
2022-10-11T05:41:21.304Z,102571.69
2022-10-11T05:43:50.563Z,102578.55
2022-10-11T05:46:19.969Z,102581.58
2022-10-11T05:48:49.371Z,102578.28
2022-10-11T05:51:19.267Z,102587.30
2022-10-11T05:53:48.695Z,102586.47
2022-10-11T05:56:26.121Z,102590.48
2022-10-11T05:58:59.948Z,102587.07
2022-10-11T06:01:27.992Z,102595.67
2022-10-11T06:03:57.488Z,102591.95
2022-10-11T06:06:27.628Z,102591.91
2022-10-11T06:08:57.100Z,102593.05
2022-10-11T06:11:27.975Z,102602.23
2022-10-11T06:13:58.472Z,102602.59
2022-10-11T06:16:27.950Z,102599.22
2022-10-11T06:18:58.077Z,102609.16
2022-10-11T06:21:27.489Z,102603.73
2022-10-11T06:24:01.048Z,102607.66
2022-10-11T06:26:28.489Z,102606.64
2022-10-11T06:28:58.757Z,102616.73
2022-10-11T06:31:28.323Z,102568.75
2022-10-11T06:33:58.924Z,102613.77
2022-10-11T06:36:28.726Z,102616.83
2022-10-11T06:38:59.975Z,102621.22
2022-10-11T06:41:30.858Z,102625.38
2022-10-11T06:44:00.744Z,102621.95
2022-10-11T06:46:32.371Z,102634.31
2022-10-11T06:49:01.828Z,102630.05
2022-10-11T06:51:31.599Z,102634.39
2022-10-11T06:54:02.003Z,102640.25
2022-10-11T06:56:31.953Z,102644.66
2022-10-11T06:59:01.584Z,102649.42
2022-10-11T07:01:31.200Z,102652.11
2022-10-11T07:04:01.584Z,102654.58
2022-10-11T07:06:31.755Z,102659.80
2022-10-11T07:09:01.669Z,102657.61
2022-10-11T07:11:31.067Z,102661.03
2022-10-11T07:14:04.423Z,102663.70
2022-10-11T07:16:34.387Z,102664.05
2022-10-11T07:19:05.656Z,102670.34
2022-10-11T07:21:35.928Z,102669.00
2022-10-11T07:24:06.892Z,102676.03
2022-10-11T07:26:38.723Z,102673.90
2022-10-11T07:29:09.428Z,102675.62
2022-10-11T07:31:40.558Z,102668.74
2022-10-11T07:34:09.864Z,102677.71
2022-10-11T07:36:39.164Z,102685.19
2022-10-11T07:39:09.050Z,102686.38
2022-10-11T07:41:44.620Z,102687.52
2022-10-11T07:44:10.008Z,102692.28
2022-10-11T07:46:39.372Z,102692.02
2022-10-11T07:49:08.894Z,102692.44
2022-10-11T07:51:38.376Z,102692.23
2022-10-11T07:54:07.878Z,102701.83
2022-10-11T07:56:40.050Z,102700.14
2022-10-11T07:59:11.198Z,102700.81
2022-10-11T08:01:40.495Z,102702.66
2022-10-11T08:04:10.822Z,102703.73
2022-10-11T08:06:40.067Z,102700.22
2022-10-11T08:09:10.321Z,102694.36
2022-10-11T08:11:39.731Z,102705.79
2022-10-11T08:14:11.399Z,102699.05
2022-10-11T08:16:41.068Z,102699.83
2022-10-11T08:19:11.450Z,102700.91
2022-10-11T08:21:40.845Z,102708.00
2022-10-11T08:24:11.269Z,102714.78
2022-10-11T08:26:40.641Z,102714.28
2022-10-11T08:29:10.187Z,102714.97
2022-10-11T08:31:39.555Z,102718.34
2022-10-11T08:34:08.989Z,102723.22
2022-10-11T08:36:38.640Z,102720.55
2022-10-11T08:39:08.344Z,102725.33
2022-10-11T08:41:42.941Z,102731.04
2022-10-11T08:44:46.154Z,102735.97
2022-10-11T08:47:20.985Z,102738.73
2022-10-11T08:49:50.741Z,102741.61
2022-10-11T08:52:25.895Z,102738.12
2022-10-11T08:55:04.726Z,102747.03
2022-10-11T08:57:36.393Z,102743.40
2022-10-11T09:00:12.261Z,102742.63
2022-10-11T09:03:09.389Z,102748.60
2022-10-11T09:05:34.724Z,102746.03
2022-10-11T09:08:31.233Z,102746.38
2022-10-11T09:11:15.591Z,102746.19
2022-10-11T09:14:09.379Z,102745.85
2022-10-11T09:16:58.790Z,102742.47
2022-10-11T09:20:04.788Z,102749.33
2022-10-11T09:22:45.804Z,102745.30
2022-10-11T09:25:31.060Z,102743.98
2022-10-11T09:28:21.725Z,102745.91
2022-10-11T09:30:53.966Z,102752.31
2022-10-11T09:33:47.304Z,102748.06
2022-10-11T09:36:53.012Z,102750.45
2022-10-11T09:39:34.410Z,102750.05
2022-10-11T09:42:07.725Z,102748.22
2022-10-11T09:44:42.171Z,102751.55
2022-10-11T09:47:17.904Z,102745.45
2022-10-11T09:49:53.417Z,102747.00
2022-10-11T09:52:24.240Z,102753.89
2022-10-11T09:54:59.969Z,102753.67
2022-10-11T09:57:38.446Z,102755.11
2022-10-11T10:00:22.446Z,102753.78
2022-10-11T10:02:54.125Z,102754.56
2022-10-11T10:05:26.256Z,102753.02
2022-10-11T10:08:04.550Z,102750.55
2022-10-11T10:10:55.772Z,102750.44
2022-10-11T10:13:38.071Z,102743.44
2022-10-11T10:16:09.950Z,102748.70
2022-10-11T10:18:42.479Z,102747.70
2022-10-11T10:21:14.236Z,102746.01
2022-10-11T10:23:44.608Z,102744.98
2022-10-11T10:26:17.375Z,102744.73
2022-10-11T10:29:05.374Z,102746.48
2022-10-11T10:32:02.011Z,102744.64
2022-10-11T10:34:17.230Z,102741.70
2022-10-11T10:36:49.881Z,102731.98
2022-10-11T10:39:31.475Z,102736.24
2022-10-11T10:42:02.925Z,102735.03
2022-10-11T10:44:32.533Z,102738.85
2022-10-11T10:47:17.050Z,102743.29
2022-10-11T10:50:07.814Z,102734.14
2022-10-11T10:52:56.995Z,102732.30
2022-10-11T10:55:29.965Z,102729.68
2022-10-11T10:58:28.147Z,102729.69
2022-10-11T11:01:23.972Z,102725.36
2022-10-11T11:04:14.190Z,102733.69
2022-10-11T11:06:46.789Z,102727.07
2022-10-11T11:09:25.501Z,102721.52
2022-10-11T11:12:20.861Z,102730.81
2022-10-11T11:14:57.331Z,102729.23
2022-10-11T11:17:41.595Z,102720.09
2022-10-11T11:20:16.951Z,102719.53
2022-10-11T11:22:58.254Z,102723.38
2022-10-11T11:25:44.877Z,102716.39
2022-10-11T11:28:39.747Z,102719.56
2022-10-11T11:31:32.140Z,102717.72
2022-10-11T11:34:16.763Z,102723.22
2022-10-11T11:36:51.794Z,102715.06
2022-10-11T11:39:26.328Z,102716.75
2022-10-11T11:42:08.749Z,102715.28
2022-10-11T11:44:39.016Z,102713.86
2022-10-11T11:47:18.177Z,102711.09
2022-10-11T11:49:56.549Z,102706.48
2022-10-11T11:52:44.889Z,102695.06
2022-10-11T11:55:49.593Z,102691.32
2022-10-11T11:58:27.008Z,102691.32
2022-10-11T12:01:30.247Z,102693.77
2022-10-11T12:03:59.310Z,102693.75
2022-10-11T12:06:33.594Z,102689.57
2022-10-11T12:09:09.411Z,102687.19
2022-10-11T12:11:44.805Z,102694.08
2022-10-11T12:14:35.843Z,102686.74
2022-10-11T12:17:11.521Z,102683.22
2022-10-11T12:19:44.271Z,102683.22
2022-10-11T12:22:32.242Z,102675.57
2022-10-11T12:25:25.539Z,102677.59
2022-10-11T12:27:57.898Z,102674.55
2022-10-11T12:30:48.856Z,102670.05
2022-10-11T12:33:34.616Z,102673.24
2022-10-11T12:36:08.410Z,102676.73
2022-10-11T12:38:40.216Z,102669.23
2022-10-11T12:41:17.086Z,102666.33
2022-10-11T12:43:52.045Z,102665.61
2022-10-11T12:46:33.381Z,102660.62
2022-10-11T12:49:09.155Z,102657.07
2022-10-11T12:51:41.350Z,102662.56
2022-10-11T12:54:37.373Z,102658.36
2022-10-11T12:57:25.254Z,102660.73
2022-10-11T12:59:54.826Z,102658.00
2022-10-11T13:02:28.859Z,102651.92
2022-10-11T13:05:07.118Z,102646.66
2022-10-11T13:07:37.003Z,102647.39
2022-10-11T13:10:07.072Z,102655.46
2022-10-11T13:12:39.456Z,102653.53
2022-10-11T13:15:12.048Z,102652.31
2022-10-11T13:17:41.973Z,102650.25
2022-10-11T13:20:20.454Z,102651.61
2022-10-11T13:22:53.007Z,102648.23
2022-10-11T13:25:28.149Z,102643.41
2022-10-11T13:28:02.296Z,102640.58
2022-10-11T13:30:34.312Z,102639.13
2022-10-11T13:33:08.794Z,102637.97
2022-10-11T13:35:39.165Z,102648.16
2022-10-11T13:38:14.892Z,102638.95
2022-10-11T13:40:50.804Z,102631.25
2022-10-11T13:43:20.866Z,102637.05
2022-10-11T13:45:50.590Z,102632.91
2022-10-11T13:48:19.977Z,102632.19
2022-10-11T13:51:08.282Z,102625.86
2022-10-11T13:53:37.634Z,102626.91
2022-10-11T13:56:09.558Z,102628.31
2022-10-11T13:58:46.927Z,102618.66
2022-10-11T14:01:22.817Z,102623.36
2022-10-11T14:04:13.976Z,102631.16
2022-10-11T14:06:52.509Z,102629.13
2022-10-11T14:09:30.426Z,102623.45
2022-10-11T14:12:24.085Z,102627.39
2022-10-11T14:14:53.449Z,102626.81
2022-10-11T14:17:25.994Z,102620.01
2022-10-11T14:20:10.972Z,102618.53
2022-10-11T14:22:36.449Z,102610.87
2022-10-11T14:25:05.919Z,102613.41
2022-10-11T14:27:35.338Z,102608.19
2022-10-11T14:32:40.001Z,102608.02
2022-10-11T14:35:20.574Z,102603.92
2022-10-11T14:37:50.083Z,102602.99
2022-10-11T14:40:22.673Z,102599.45
2022-10-11T14:42:52.459Z,102603.08
2022-10-11T14:45:21.718Z,102590.67
2022-10-11T14:47:51.972Z,102602.64
2022-10-11T14:50:39.458Z,102601.60
2022-10-11T14:53:09.859Z,102598.73
2022-10-11T14:58:30.284Z,102589.66
2022-10-11T15:00:59.660Z,102584.12
2022-10-11T15:03:29.170Z,102588.83
2022-10-11T15:05:58.593Z,102589.23
2022-10-11T15:08:27.889Z,102582.80
2022-10-11T15:10:57.471Z,102584.87
2022-10-11T15:13:26.676Z,102587.67
2022-10-11T15:15:56.068Z,102587.20
2022-10-11T15:18:25.360Z,102579.63
2022-10-11T15:20:56.080Z,102575.70
2022-10-11T15:23:26.197Z,102584.16
2022-10-11T15:25:55.659Z,102579.96
2022-10-11T15:28:31.070Z,102581.88
2022-10-11T15:31:00.818Z,102573.19
2022-10-11T15:33:30.153Z,102572.85
2022-10-11T15:35:59.472Z,102568.91
2022-10-11T15:38:29.120Z,102559.79
2022-10-11T15:40:59.684Z,102562.63
2022-10-11T15:43:28.944Z,102557.35
2022-10-11T15:45:59.442Z,102561.36
2022-10-11T15:48:30.733Z,102556.54
2022-10-11T15:51:00.425Z,102555.58
2022-10-11T15:53:31.510Z,102553.45
2022-10-11T15:56:03.331Z,102548.42
2022-10-11T15:58:35.333Z,102548.84
2022-10-11T16:01:16.303Z,102551.11
2022-10-11T16:03:46.777Z,102550.19
2022-10-11T16:06:16.800Z,102550.31
2022-10-11T16:08:46.380Z,102549.73
2022-10-11T16:11:15.993Z,102550.28
2022-10-11T16:13:45.492Z,102557.15
2022-10-11T16:16:14.755Z,102555.52
2022-10-11T16:18:44.412Z,102556.43
2022-10-11T16:21:15.586Z,102550.65
2022-10-11T16:23:45.089Z,102544.70
2022-10-11T16:26:16.589Z,102551.31
2022-10-11T16:28:48.104Z,102553.92
2022-10-11T16:31:20.237Z,102554.09
2022-10-11T16:33:50.337Z,102561.46
2022-10-11T16:36:36.219Z,102556.42
2022-10-11T16:39:18.184Z,102558.58
2022-10-11T16:41:48.096Z,102559.62
2022-10-11T16:44:20.349Z,102555.99
2022-10-11T16:46:50.389Z,102555.73
2022-10-11T16:49:22.790Z,102564.69
2022-10-11T16:51:53.609Z,102562.73
2022-10-11T16:54:23.199Z,102564.52
2022-10-11T16:56:52.879Z,102565.10
2022-10-11T16:59:22.390Z,102564.42
2022-10-11T17:01:51.788Z,102566.17
2022-10-11T17:04:21.408Z,102563.15
2022-10-11T17:06:50.849Z,102559.13
2022-10-11T17:09:20.168Z,102569.22
2022-10-11T17:11:49.626Z,102565.56
2022-10-11T17:14:19.423Z,102570.04
2022-10-11T17:16:48.817Z,102566.28
2022-10-11T17:19:18.042Z,102568.52
2022-10-11T17:21:47.376Z,102568.36
2022-10-11T17:24:16.965Z,102570.59
2022-10-11T17:26:46.196Z,102572.37
2022-10-11T17:29:17.059Z,102569.28
2022-10-11T17:31:49.247Z,102566.09
2022-10-11T17:34:18.055Z,102565.77
2022-10-11T17:36:48.071Z,102563.44
2022-10-11T17:39:20.313Z,102563.66
2022-10-11T17:41:50.857Z,102565.02
2022-10-11T17:44:21.711Z,102568.88
2022-10-11T17:46:51.466Z,102569.07
2022-10-11T17:49:20.846Z,102570.59
2022-10-11T17:51:50.460Z,102569.41
2022-10-11T17:54:19.705Z,102571.52
2022-10-11T17:56:50.257Z,102569.93
2022-10-11T17:59:25.231Z,102573.97
2022-10-11T18:01:55.480Z,102568.89
2022-10-11T18:04:26.620Z,102568.36
2022-10-11T18:06:56.072Z,102570.83
2022-10-11T18:09:25.473Z,102565.72
2022-10-11T18:11:54.855Z,102566.78
2022-10-11T18:14:24.253Z,102561.63
2022-10-11T18:16:53.807Z,102565.45
2022-10-11T18:19:23.211Z,102567.22
2022-10-11T18:21:52.695Z,102566.09
2022-10-11T18:24:22.135Z,102564.45
2022-10-11T18:26:51.690Z,102570.65
2022-10-11T18:29:21.109Z,102570.65
2022-10-11T18:31:50.737Z,102566.32
2022-10-11T18:34:20.099Z,102565.50
2022-10-11T18:36:49.427Z,102565.39
2022-10-11T18:39:20.748Z,102568.53
2022-10-11T18:41:50.220Z,102564.12
2022-10-11T18:44:19.658Z,102563.00
2022-10-11T18:46:50.323Z,102566.02
2022-10-11T18:49:19.769Z,102559.82
2022-10-11T18:51:49.310Z,102556.53
2022-10-11T18:54:21.265Z,102559.96
2022-10-11T18:56:50.876Z,102553.73
2022-10-11T18:59:20.473Z,102555.59
2022-10-11T19:01:51.540Z,102556.34
2022-10-11T19:04:21.613Z,102552.09
2022-10-11T19:06:52.661Z,102550.66
2022-10-11T19:09:26.071Z,102552.01
2022-10-11T19:11:56.400Z,102549.02
2022-10-11T19:14:28.592Z,102537.95
2022-10-11T19:16:58.173Z,102542.41
2022-10-11T19:19:29.102Z,102542.83
2022-10-11T19:21:58.819Z,102534.16
2022-10-11T19:24:29.620Z,102537.89
2022-10-11T19:27:02.532Z,102535.61
2022-10-11T19:29:30.714Z,102543.06
2022-10-11T19:32:01.696Z,102539.75
2022-10-11T19:34:32.683Z,102539.14
2022-10-11T19:37:03.381Z,102537.72
2022-10-11T19:39:33.127Z,102535.96
2022-10-11T19:42:04.307Z,102540.39
2022-10-11T19:44:38.655Z,102540.53
2022-10-11T19:47:07.810Z,102534.83
2022-10-11T19:49:37.481Z,102538.36
2022-10-11T19:52:06.918Z,102536.61
2022-10-11T19:54:36.273Z,102536.70
2022-10-11T19:57:05.674Z,102541.77
2022-10-11T19:59:34.921Z,102542.39
2022-10-11T20:02:04.313Z,102537.78
2022-10-11T20:04:51.670Z,102540.64
2022-10-11T20:07:04.682Z,102540.77
2022-10-11T20:09:34.163Z,102541.70
2022-10-11T20:12:03.555Z,102548.94
2022-10-11T20:14:32.836Z,102547.17
2022-10-11T20:17:02.095Z,102543.55
2022-10-11T20:19:33.032Z,102540.56
2022-10-11T20:22:02.705Z,102544.16
2022-10-11T20:24:34.102Z,102544.38
2022-10-11T20:27:05.224Z,102547.30
2022-10-11T20:29:34.697Z,102544.43
2022-10-11T20:32:05.858Z,102548.84
2022-10-11T20:34:36.804Z,102545.22
2022-10-11T20:37:06.143Z,102546.24
2022-10-11T20:39:35.484Z,102546.03
2022-10-11T20:42:05.064Z,102549.75
2022-10-11T20:44:36.020Z,102552.12
2022-10-11T20:47:05.303Z,102548.09
2022-10-11T20:49:37.625Z,102547.79
2022-10-11T20:52:08.768Z,102548.83
2022-10-11T20:54:39.801Z,102547.06
2022-10-11T20:57:09.442Z,102545.11
2022-10-11T20:59:38.816Z,102545.10
2022-10-11T21:02:10.351Z,102540.33
2022-10-11T21:04:47.481Z,102545.13
2022-10-11T21:07:16.894Z,102544.20
2022-10-11T21:09:46.347Z,102546.52
2022-10-11T21:12:19.018Z,102547.25
2022-10-11T21:14:48.389Z,102544.58
2022-10-11T21:17:18.096Z,102548.81
2022-10-11T21:19:47.515Z,102550.37
2022-10-11T21:22:28.471Z,102546.22
2022-10-11T21:24:57.951Z,102545.01
2022-10-11T21:27:37.682Z,102543.84
2022-10-11T21:30:12.812Z,102537.36
2022-10-11T21:32:48.930Z,102546.33
2022-10-11T21:35:28.224Z,102540.84
2022-10-11T21:38:07.054Z,102539.50
2022-10-11T21:40:44.910Z,102543.42
2022-10-11T21:43:23.537Z,102543.08
2022-10-11T21:46:01.424Z,102541.44
2022-10-11T21:48:37.695Z,102549.78
2022-10-11T21:51:15.954Z,102543.19
2022-10-11T21:53:51.807Z,102539.25
2022-10-11T21:56:26.293Z,102541.92
2022-10-11T21:59:07.934Z,102534.20
2022-10-11T22:01:42.760Z,102532.77
2022-10-11T22:04:19.323Z,102539.53
2022-10-11T22:06:55.632Z,102527.35
2022-10-11T22:09:28.488Z,102531.70
2022-10-11T22:11:58.386Z,102525.19
2022-10-11T22:14:28.304Z,102529.19
2022-10-11T22:16:59.108Z,102528.88
2022-10-11T22:19:28.470Z,102524.22
2022-10-11T22:21:57.894Z,102520.92
2022-10-11T22:24:28.744Z,102523.50
2022-10-11T22:26:59.925Z,102523.05
2022-10-11T22:29:34.001Z,102520.41
2022-10-11T22:32:00.765Z,102522.50
2022-10-11T22:34:33.166Z,102518.59
2022-10-11T22:37:02.488Z,102523.77
2022-10-11T22:39:31.863Z,102533.89
2022-10-11T22:42:01.120Z,102528.88
2022-10-11T22:44:30.526Z,102530.36
2022-10-11T22:47:00.076Z,102532.38
2022-10-11T22:49:29.368Z,102529.62
2022-10-11T22:52:00.703Z,102529.83
2022-10-11T22:54:31.590Z,102524.41
2022-10-11T22:57:00.917Z,102520.50
2022-10-11T22:59:30.526Z,102521.94
2022-10-11T23:02:02.633Z,102515.31
2022-10-11T23:04:33.697Z,102487.77
2022-10-11T23:07:05.077Z,102514.80
2022-10-11T23:09:34.020Z,102506.84
2022-10-11T23:12:03.437Z,102507.80
2022-10-11T23:14:33.552Z,102503.91
2022-10-11T23:17:02.861Z,102503.52
2022-10-11T23:19:33.785Z,102504.14
2022-10-11T23:22:03.949Z,102506.44
2022-10-11T23:24:33.691Z,102503.77
2022-10-11T23:27:03.178Z,102500.58
2022-10-11T23:29:33.002Z,102497.70
2022-10-11T23:32:02.341Z,102498.97
2022-10-11T23:34:31.793Z,102495.27
2022-10-11T23:37:02.403Z,102488.89
2022-10-11T23:39:32.129Z,102489.61
2022-10-11T23:42:01.476Z,102484.88
2022-10-11T23:44:31.002Z,102486.01
2022-10-11T23:47:00.431Z,102492.52
2022-10-11T23:49:31.181Z,102492.31
2022-10-11T23:52:00.928Z,102493.45
2022-10-11T23:54:30.294Z,102492.11
2022-10-11T23:56:59.612Z,102494.72
2022-10-11T23:59:30.569Z,102496.23
